createdAt,value
2019-04-29T00:00:03.608Z,10.60
2019-04-29T00:02:33.975Z,10.60
2019-04-29T00:05:02.821Z,10.50
2019-04-29T00:07:31.646Z,10.60
2019-04-29T00:10:00.489Z,10.60
2019-04-29T00:12:30.109Z,10.60
2019-04-29T00:15:03.605Z,10.60
2019-04-29T00:17:37.150Z,10.70
2019-04-29T00:20:15.070Z,10.70
2019-04-29T00:22:43.889Z,10.80
2019-04-29T00:25:12.765Z,10.70
2019-04-29T00:27:41.572Z,10.70
2019-04-29T00:30:11.979Z,10.70
2019-04-29T00:32:40.830Z,10.70
2019-04-29T00:35:09.667Z,10.70
2019-04-29T00:37:40.085Z,10.80
2019-04-29T00:40:25.535Z,10.80
2019-04-29T00:43:12.137Z,10.70
2019-04-29T00:45:41.086Z,10.70
2019-04-29T00:48:09.952Z,10.70
2019-04-29T00:50:38.755Z,10.70
2019-04-29T00:53:07.624Z,10.60
2019-04-29T00:55:36.372Z,10.70
2019-04-29T00:58:05.221Z,10.60
2019-04-29T01:00:39.020Z,10.50
2019-04-29T01:03:07.862Z,10.60
2019-04-29T01:05:37.371Z,10.50
2019-04-29T01:08:06.335Z,10.50
2019-04-29T01:10:35.162Z,10.40
2019-04-29T01:13:04.118Z,10.50
2019-04-29T01:15:32.988Z,10.60
2019-04-29T01:18:01.791Z,10.50
2019-04-29T01:20:30.646Z,10.50
2019-04-29T01:22:59.470Z,10.50
2019-04-29T01:25:28.340Z,10.40
2019-04-29T01:28:01.709Z,10.50
2019-04-29T01:30:52.903Z,10.70
2019-04-29T01:33:21.832Z,10.70
2019-04-29T01:35:52.245Z,10.70
2019-04-29T01:38:21.079Z,10.70
2019-04-29T01:41:00.758Z,10.70
2019-04-29T01:43:49.442Z,10.70
2019-04-29T01:46:21.709Z,10.70
2019-04-29T01:48:53.944Z,10.70
2019-04-29T01:51:26.670Z,10.60
2019-04-29T01:53:58.180Z,10.70
2019-04-29T01:56:30.342Z,10.70
2019-04-29T01:59:01.081Z,10.70
2019-04-29T02:01:33.378Z,10.60
2019-04-29T02:04:05.725Z,10.70
2019-04-29T02:06:38.204Z,10.60
2019-04-29T02:09:11.748Z,10.70
2019-04-29T02:11:44.055Z,10.60
2019-04-29T02:14:18.212Z,10.50
2019-04-29T02:16:50.457Z,10.50
2019-04-29T02:19:23.299Z,10.50
2019-04-29T02:22:12.349Z,10.50
2019-04-29T02:24:45.532Z,10.40
2019-04-29T02:27:17.529Z,10.40
2019-04-29T02:29:49.928Z,10.40
2019-04-29T02:32:22.212Z,10.50
2019-04-29T02:34:54.494Z,10.50
2019-04-29T02:37:28.624Z,10.40
2019-04-29T02:40:02.195Z,10.40
2019-04-29T02:42:41.944Z,10.40
2019-04-29T02:45:15.395Z,10.40
2019-04-29T02:47:47.889Z,10.40
2019-04-29T02:50:20.087Z,10.40
2019-04-29T02:52:52.351Z,10.40
2019-04-29T02:55:25.846Z,10.50
2019-04-29T02:58:02.529Z,10.50
2019-04-29T03:00:48.339Z,10.50
2019-04-29T03:03:22.064Z,10.50
2019-04-29T03:06:01.906Z,10.60
2019-04-29T03:08:33.478Z,10.60
2019-04-29T03:11:06.838Z,10.70
2019-04-29T03:13:38.998Z,10.80
2019-04-29T03:16:09.891Z,10.70
2019-04-29T03:18:43.213Z,10.70
2019-04-29T03:21:20.653Z,10.70
2019-04-29T03:23:51.824Z,10.70
2019-04-29T03:26:25.142Z,10.60
2019-04-29T03:28:57.662Z,10.60
2019-04-29T03:31:30.234Z,10.50
2019-04-29T03:34:02.450Z,10.50
2019-04-29T03:36:32.867Z,10.50
2019-04-29T03:39:05.674Z,10.50
2019-04-29T03:41:37.878Z,10.60
2019-04-29T03:44:08.307Z,10.50
2019-04-29T03:46:40.199Z,10.60
2019-04-29T03:49:12.591Z,10.50
2019-04-29T03:51:44.780Z,10.50
2019-04-29T03:54:19.356Z,10.40
2019-04-29T03:56:50.196Z,10.50
2019-04-29T03:59:41.054Z,10.60
2019-04-29T04:02:30.746Z,10.60
2019-04-29T04:05:10.730Z,10.60
2019-04-29T04:07:49.573Z,10.40
2019-04-29T04:10:20.912Z,10.40
2019-04-29T04:12:52.619Z,10.40
2019-04-29T04:15:24.813Z,10.50
2019-04-29T04:18:00.186Z,10.50
2019-04-29T04:20:29.000Z,10.50
2019-04-29T04:22:57.828Z,10.50
2019-04-29T04:25:26.592Z,10.50
2019-04-29T04:27:55.479Z,10.50
2019-04-29T04:30:24.299Z,10.50
2019-04-29T04:32:53.120Z,10.60
2019-04-29T04:35:22.000Z,10.60
2019-04-29T04:37:50.811Z,10.60
2019-04-29T04:40:24.286Z,10.60
2019-04-29T04:42:53.099Z,10.60
2019-04-29T04:45:21.955Z,10.50
2019-04-29T04:47:50.756Z,10.40
2019-04-29T04:50:19.633Z,10.40
2019-04-29T04:52:48.469Z,10.30
2019-04-29T04:55:18.114Z,10.40
2019-04-29T04:57:46.930Z,10.40
2019-04-29T05:00:23.495Z,10.30
2019-04-29T05:02:52.300Z,10.40
2019-04-29T05:05:21.135Z,10.40
2019-04-29T05:07:49.972Z,10.50
2019-04-29T05:10:18.715Z,10.50
2019-04-29T05:12:47.570Z,10.40
2019-04-29T05:15:16.422Z,10.40
2019-04-29T05:17:45.899Z,10.30
2019-04-29T05:20:15.074Z,10.30
2019-04-29T05:22:45.487Z,10.40
2019-04-29T05:25:14.295Z,10.40
2019-04-29T05:27:43.146Z,10.40
2019-04-29T05:30:12.091Z,10.40
2019-04-29T05:32:40.960Z,10.30
2019-04-29T05:35:11.333Z,10.30
2019-04-29T05:37:41.755Z,10.20
2019-04-29T05:40:10.656Z,10.20
2019-04-29T05:42:39.513Z,10.10
2019-04-29T05:45:10.325Z,10.10
2019-04-29T05:47:43.701Z,9.90
2019-04-29T05:50:20.068Z,9.90
2019-04-29T05:52:50.468Z,9.80
2019-04-29T05:55:19.296Z,9.70
2019-04-29T05:57:48.159Z,9.70
2019-04-29T06:00:18.873Z,9.70
2019-04-29T06:02:48.551Z,9.70
2019-04-29T06:05:17.340Z,9.70
2019-04-29T06:07:46.189Z,9.80
2019-04-29T06:10:18.127Z,9.70
2019-04-29T06:12:45.493Z,9.80
2019-04-29T06:15:14.301Z,9.80
2019-04-29T06:17:44.701Z,9.90
2019-04-29T06:20:17.554Z,9.90
2019-04-29T06:22:44.364Z,9.90
2019-04-29T06:25:13.214Z,9.90
2019-04-29T06:27:42.011Z,9.90
2019-04-29T06:30:11.180Z,9.90
2019-04-29T06:32:40.013Z,9.80
2019-04-29T06:35:10.673Z,9.80
2019-04-29T06:37:39.408Z,9.80
2019-04-29T06:40:08.369Z,9.80
2019-04-29T06:42:37.183Z,9.90
2019-04-29T06:45:07.649Z,9.90
2019-04-29T06:47:36.462Z,9.90
2019-04-29T06:50:07.373Z,9.90
2019-04-29T06:52:36.202Z,10.00
2019-04-29T06:55:06.644Z,10.00
2019-04-29T06:57:35.480Z,10.00
2019-04-29T07:00:06.441Z,10.10
2019-04-29T07:02:35.188Z,10.10
2019-04-29T07:05:05.327Z,10.20
2019-04-29T07:07:34.142Z,10.20
2019-04-29T07:10:03.016Z,10.20
2019-04-29T07:12:31.847Z,10.30
2019-04-29T07:15:00.796Z,10.30
2019-04-29T07:17:29.644Z,10.30
2019-04-29T07:20:02.017Z,10.30
2019-04-29T07:22:31.126Z,10.30
2019-04-29T07:24:59.435Z,10.40
2019-04-29T07:27:28.307Z,10.40
2019-04-29T07:29:57.128Z,10.40
2019-04-29T07:32:25.995Z,10.40
2019-04-29T07:34:54.817Z,10.50
2019-04-29T07:37:23.579Z,10.50
2019-04-29T07:39:52.420Z,10.50
2019-04-29T07:42:25.023Z,10.60
2019-04-29T07:45:09.208Z,10.60
2019-04-29T07:47:39.050Z,10.60
2019-04-29T07:50:08.370Z,10.70
2019-04-29T07:52:37.186Z,10.60
2019-04-29T07:55:07.223Z,10.60
2019-04-29T07:57:36.057Z,10.60
2019-04-29T08:00:08.568Z,10.60
2019-04-29T08:02:38.396Z,10.70
2019-04-29T08:05:12.198Z,10.70
2019-04-29T08:07:42.079Z,10.80
2019-04-29T08:10:23.192Z,10.90
2019-04-29T08:12:43.301Z,10.90
2019-04-29T08:15:12.416Z,11.00
2019-04-29T08:17:41.255Z,10.90
2019-04-29T08:20:10.471Z,11.00
2019-04-29T08:22:39.340Z,11.10
2019-04-29T08:25:08.558Z,11.10
2019-04-29T08:27:40.801Z,11.10
2019-04-29T08:30:11.251Z,11.30
2019-04-29T08:32:38.787Z,11.40
2019-04-29T08:35:08.101Z,11.50
2019-04-29T08:37:36.958Z,11.50
2019-04-29T08:40:15.973Z,11.70
2019-04-29T08:42:46.669Z,11.80
2019-04-29T08:45:14.953Z,11.80
2019-04-29T08:47:48.340Z,11.70
2019-04-29T08:50:17.258Z,11.60
2019-04-29T08:52:46.078Z,11.50
2019-04-29T08:55:15.483Z,11.40
2019-04-29T08:57:44.291Z,11.50
2019-04-29T09:00:14.026Z,11.50
2019-04-29T09:02:47.288Z,11.60
2019-04-29T09:05:13.868Z,11.60
2019-04-29T09:07:42.673Z,11.70
2019-04-29T09:10:12.744Z,11.80
2019-04-29T09:12:41.578Z,11.90
2019-04-29T09:15:11.933Z,12.10
2019-04-29T09:17:40.741Z,12.20
2019-04-29T09:20:10.193Z,12.20
2019-04-29T09:22:43.026Z,12.20
2019-04-29T09:25:16.494Z,12.30
2019-04-29T09:27:46.076Z,12.20
2019-04-29T09:30:17.309Z,12.30
2019-04-29T09:32:46.031Z,12.20
2019-04-29T09:35:14.865Z,12.20
2019-04-29T09:37:43.732Z,12.20
2019-04-29T09:40:14.221Z,12.40
2019-04-29T09:42:45.552Z,12.30
2019-04-29T09:45:19.543Z,12.20
2019-04-29T09:47:47.917Z,12.30
2019-04-29T09:50:16.833Z,12.20
2019-04-29T09:52:45.702Z,12.20
2019-04-29T09:55:14.606Z,12.20
2019-04-29T09:57:43.461Z,12.30
2019-04-29T10:00:14.159Z,12.40
2019-04-29T10:02:50.372Z,12.50
2019-04-29T10:05:35.769Z,12.50
2019-04-29T10:08:05.656Z,12.60
2019-04-29T10:10:37.144Z,12.60
2019-04-29T10:13:06.676Z,12.60
2019-04-29T10:15:55.879Z,12.80
2019-04-29T10:18:29.768Z,12.80
2019-04-29T10:21:00.325Z,13.00
2019-04-29T10:23:29.173Z,13.10
2019-04-29T10:25:58.006Z,13.20
2019-04-29T10:28:26.786Z,13.40
2019-04-29T10:30:55.617Z,13.60
2019-04-29T10:33:25.988Z,13.80
2019-04-29T10:35:54.821Z,14.00
2019-04-29T10:38:23.665Z,14.10
2019-04-29T10:41:02.475Z,14.00
2019-04-29T10:43:39.071Z,14.00
2019-04-29T10:46:25.773Z,14.10
2019-04-29T10:49:03.634Z,14.20
2019-04-29T10:51:32.652Z,14.40
2019-04-29T10:54:02.205Z,14.50
2019-04-29T10:56:31.112Z,14.60
2019-04-29T10:58:59.933Z,14.70
2019-04-29T11:02:00.652Z,14.70
2019-04-29T11:04:20.303Z,14.60
2019-04-29T11:06:49.140Z,14.70
2019-04-29T11:09:37.706Z,14.80
2019-04-29T11:12:08.896Z,14.90
2019-04-29T11:14:39.252Z,15.10
2019-04-29T11:17:16.097Z,15.30
2019-04-29T11:19:40.017Z,15.40
2019-04-29T11:22:11.989Z,15.80
2019-04-29T11:24:54.316Z,16.00
2019-04-29T11:27:26.861Z,16.10
2019-04-29T11:29:58.524Z,16.20
2019-04-29T11:32:33.629Z,16.20
2019-04-29T11:35:10.127Z,16.10
2019-04-29T11:37:38.995Z,16.20
2019-04-29T11:40:07.899Z,16.00
2019-04-29T11:42:41.483Z,15.90
2019-04-29T11:45:09.816Z,15.90
2019-04-29T11:47:38.656Z,15.90
2019-04-29T11:50:22.469Z,15.90
2019-04-29T11:52:51.325Z,15.70
2019-04-29T11:55:20.238Z,15.70
2019-04-29T11:57:59.610Z,15.50
2019-04-29T12:00:35.874Z,15.30
2019-04-29T12:03:14.405Z,15.10
2019-04-29T12:05:46.864Z,15.10
2019-04-29T12:08:17.048Z,14.90
2019-04-29T12:10:58.301Z,14.90
2019-04-29T12:13:27.196Z,14.80
2019-04-29T12:15:54.207Z,14.70
2019-04-29T12:18:24.621Z,14.80
2019-04-29T12:21:01.227Z,14.80
2019-04-29T12:23:30.096Z,14.80
2019-04-29T12:26:03.053Z,15.10
2019-04-29T12:28:29.462Z,15.40
2019-04-29T12:31:10.390Z,15.50
2019-04-29T12:33:49.701Z,15.60
2019-04-29T12:36:18.767Z,15.70
2019-04-29T12:38:54.977Z,15.80
2019-04-29T12:41:29.812Z,15.80
2019-04-29T12:44:06.471Z,15.70
2019-04-29T12:46:48.858Z,15.60
2019-04-29T12:49:16.950Z,15.60
2019-04-29T12:51:45.889Z,15.60
2019-04-29T12:54:14.750Z,15.40
2019-04-29T12:56:47.936Z,15.40
2019-04-29T12:59:14.058Z,15.40
2019-04-29T13:01:51.240Z,15.40
2019-04-29T13:04:31.747Z,15.40
2019-04-29T13:07:02.163Z,15.30
2019-04-29T13:09:35.292Z,15.30
2019-04-29T13:12:17.713Z,15.30
2019-04-29T13:14:39.003Z,15.30
2019-04-29T13:17:26.515Z,15.30
2019-04-29T13:20:02.315Z,15.20
2019-04-29T13:22:26.612Z,15.10
2019-04-29T13:24:55.465Z,15.10
2019-04-29T13:27:25.425Z,15.10
2019-04-29T13:29:54.773Z,15.20
2019-04-29T13:32:25.444Z,15.20
2019-04-29T13:34:54.256Z,15.30
2019-04-29T13:37:23.058Z,15.30
2019-04-29T13:39:55.824Z,15.20
2019-04-29T13:42:22.361Z,15.20
2019-04-29T13:45:06.108Z,15.30
2019-04-29T13:47:29.312Z,15.10
2019-04-29T13:50:17.842Z,15.10
2019-04-29T13:52:37.735Z,15.00
2019-04-29T13:55:17.051Z,15.00
2019-04-29T13:57:37.502Z,15.00
2019-04-29T14:00:19.937Z,15.10
2019-04-29T14:02:59.540Z,15.10
2019-04-29T14:05:32.577Z,15.00
2019-04-29T14:08:00.578Z,15.10
2019-04-29T14:10:29.421Z,15.10
2019-04-29T14:13:09.674Z,15.20
2019-04-29T14:15:29.659Z,15.00
2019-04-29T14:17:59.211Z,15.00
2019-04-29T14:20:28.069Z,15.30
2019-04-29T14:22:56.898Z,15.50
2019-04-29T14:25:25.760Z,15.70
2019-04-29T14:27:54.510Z,15.90
2019-04-29T14:30:37.543Z,16.10
2019-04-29T14:32:55.490Z,16.10
2019-04-29T14:35:28.922Z,16.20
2019-04-29T14:38:04.325Z,16.30
2019-04-29T14:40:28.251Z,16.20
2019-04-29T14:43:26.903Z,16.10
2019-04-29T14:46:02.747Z,16.00
2019-04-29T14:48:42.798Z,15.90
2019-04-29T14:51:04.298Z,15.90
2019-04-29T14:53:33.124Z,16.00
2019-04-29T14:56:02.016Z,15.90
2019-04-29T14:58:30.815Z,15.90
2019-04-29T15:01:01.830Z,15.90
2019-04-29T15:03:32.845Z,15.90
2019-04-29T15:06:01.746Z,16.00
2019-04-29T15:08:31.971Z,16.00
2019-04-29T15:11:04.208Z,16.00
2019-04-29T15:13:32.573Z,16.00
2019-04-29T15:16:13.670Z,16.00
2019-04-29T15:18:49.039Z,15.90
2019-04-29T15:21:32.269Z,15.90
2019-04-29T15:23:55.654Z,15.70
2019-04-29T15:26:24.492Z,15.70
2019-04-29T15:28:53.305Z,15.70
2019-04-29T15:31:23.387Z,15.70
2019-04-29T15:33:52.463Z,15.60
2019-04-29T15:36:21.317Z,15.60
2019-04-29T15:39:07.988Z,15.70
2019-04-29T15:41:20.724Z,15.80
2019-04-29T15:43:49.876Z,15.80
2019-04-29T15:46:18.712Z,15.80
2019-04-29T15:48:47.523Z,15.80
2019-04-29T15:51:16.313Z,15.90
2019-04-29T15:53:45.130Z,15.80
2019-04-29T15:56:28.459Z,15.80
2019-04-29T15:58:44.570Z,15.80
2019-04-29T16:01:17.644Z,15.80
2019-04-29T16:03:44.198Z,15.80
2019-04-29T16:06:33.894Z,15.80
2019-04-29T16:09:02.901Z,15.80
2019-04-29T16:11:35.789Z,15.80
2019-04-29T16:14:10.135Z,15.80
2019-04-29T16:16:37.165Z,15.80
2019-04-29T16:19:08.235Z,15.70
2019-04-29T16:21:39.267Z,15.70
2019-04-29T16:24:25.140Z,15.60
2019-04-29T16:26:37.495Z,15.60
2019-04-29T16:29:12.275Z,15.70
2019-04-29T16:31:36.915Z,15.50
2019-04-29T16:34:05.769Z,15.60
2019-04-29T16:36:34.586Z,15.60
2019-04-29T16:39:05.026Z,15.50
2019-04-29T16:41:37.854Z,15.50
2019-04-29T16:44:33.997Z,15.40
2019-04-29T16:46:42.069Z,15.50
2019-04-29T16:49:10.905Z,15.50
2019-04-29T16:51:39.670Z,15.60
2019-04-29T16:54:12.868Z,15.60
2019-04-29T16:56:39.010Z,15.60
2019-04-29T16:59:09.430Z,15.60
2019-04-29T17:01:38.416Z,15.40
2019-04-29T17:04:07.339Z,15.40
2019-04-29T17:06:41.315Z,15.30
2019-04-29T17:09:08.764Z,15.30
2019-04-29T17:11:41.854Z,15.30
2019-04-29T17:14:12.871Z,15.30
2019-04-29T17:16:41.275Z,15.30
2019-04-29T17:19:10.128Z,15.10
2019-04-29T17:21:38.948Z,15.20
2019-04-29T17:24:07.802Z,15.10
2019-04-29T17:26:41.182Z,15.10
2019-04-29T17:29:38.582Z,15.10
2019-04-29T17:32:08.612Z,15.00
2019-04-29T17:34:58.412Z,14.90
2019-04-29T17:37:10.375Z,14.80
2019-04-29T17:39:40.211Z,14.80
2019-04-29T17:42:09.018Z,14.70
2019-04-29T17:44:46.890Z,14.60
2019-04-29T17:47:32.288Z,14.60
2019-04-29T17:50:29.601Z,14.60
2019-04-29T17:52:49.597Z,14.50
2019-04-29T17:55:40.842Z,14.30
2019-04-29T17:58:10.233Z,14.30
2019-04-29T18:00:59.608Z,14.20
2019-04-29T18:03:46.481Z,14.10
2019-04-29T18:06:24.077Z,14.10
2019-04-29T18:08:55.111Z,14.00
2019-04-29T18:11:25.092Z,13.90
2019-04-29T18:13:57.017Z,13.90
2019-04-29T18:16:28.421Z,13.80
2019-04-29T18:19:05.650Z,13.70
2019-04-29T18:21:37.185Z,13.80
2019-04-29T18:24:25.264Z,13.70
2019-04-29T18:26:55.547Z,13.60
2019-04-29T18:29:25.789Z,13.50
2019-04-29T18:31:55.634Z,13.50
2019-04-29T18:34:25.241Z,13.40
2019-04-29T18:37:00.017Z,13.40
2019-04-29T18:39:28.592Z,13.40
2019-04-29T18:41:58.826Z,13.30
2019-04-29T18:44:27.150Z,13.30
2019-04-29T18:46:57.296Z,13.30
2019-04-29T18:49:26.539Z,13.20
2019-04-29T18:51:58.027Z,13.20
2019-04-29T18:54:27.030Z,13.10
2019-04-29T18:56:55.986Z,13.10
2019-04-29T18:59:30.702Z,13.10
2019-04-29T19:01:55.291Z,13.10
2019-04-29T19:04:28.635Z,13.00
2019-04-29T19:07:02.163Z,13.10
2019-04-29T19:09:32.168Z,13.10
2019-04-29T19:12:00.335Z,13.00
2019-04-29T19:14:29.148Z,13.00
2019-04-29T19:17:01.233Z,13.00
2019-04-29T19:19:30.837Z,13.00
2019-04-29T19:22:00.754Z,13.00
2019-04-29T19:24:31.568Z,13.00
2019-04-29T19:27:00.822Z,12.90
2019-04-29T19:29:30.438Z,12.90
2019-04-29T19:31:59.261Z,12.90
2019-04-29T19:34:39.606Z,12.80
2019-04-29T19:36:59.513Z,12.80
2019-04-29T19:39:28.437Z,12.80
2019-04-29T19:41:57.253Z,12.80
2019-04-29T19:44:33.112Z,12.80
2019-04-29T19:46:58.982Z,12.80
2019-04-29T19:49:27.062Z,12.70
2019-04-29T19:51:55.889Z,12.70
2019-04-29T19:54:28.452Z,12.80
2019-04-29T19:57:03.094Z,12.70
2019-04-29T19:59:26.406Z,12.70
2019-04-29T20:02:02.153Z,12.60
2019-04-29T20:04:28.205Z,12.60
2019-04-29T20:07:05.537Z,12.60
2019-04-29T20:09:29.157Z,12.60
2019-04-29T20:11:58.544Z,12.50
2019-04-29T20:14:31.581Z,12.50
2019-04-29T20:17:04.371Z,12.60
2019-04-29T20:19:37.902Z,12.60
2019-04-29T20:22:09.339Z,12.50
2019-04-29T20:24:37.608Z,12.50
2019-04-29T20:27:06.730Z,12.50
2019-04-29T20:29:38.418Z,12.50
2019-04-29T20:32:07.749Z,12.50
2019-04-29T20:34:36.690Z,12.50
2019-04-29T20:37:06.232Z,12.50
2019-04-29T20:39:36.501Z,12.50
2019-04-29T20:42:10.025Z,12.50
2019-04-29T20:44:36.944Z,12.50
2019-04-29T20:47:19.071Z,12.40
2019-04-29T20:49:39.532Z,12.40
2019-04-29T20:52:20.608Z,12.40
2019-04-29T20:54:47.160Z,12.50
2019-04-29T20:57:20.543Z,12.50
2019-04-29T20:59:50.169Z,12.40
2019-04-29T21:02:29.483Z,12.50
2019-04-29T21:04:47.655Z,12.40
2019-04-29T21:07:23.496Z,12.40
2019-04-29T21:09:47.419Z,12.40
2019-04-29T21:12:20.851Z,12.40
2019-04-29T21:15:07.429Z,12.40
2019-04-29T21:17:35.317Z,12.40
2019-04-29T21:20:06.018Z,12.30
2019-04-29T21:22:35.694Z,12.30
2019-04-29T21:25:08.778Z,12.30
2019-04-29T21:27:37.635Z,12.30
2019-04-29T21:30:08.443Z,12.30
2019-04-29T21:32:38.976Z,12.20
2019-04-29T21:35:10.189Z,12.20
2019-04-29T21:37:46.619Z,12.20
2019-04-29T21:40:18.745Z,12.20
2019-04-29T21:42:50.291Z,12.00
2019-04-29T21:45:19.607Z,12.00
2019-04-29T21:47:53.393Z,12.10
2019-04-29T21:50:18.933Z,12.10
2019-04-29T21:52:47.766Z,12.10
2019-04-29T21:55:20.510Z,12.20
2019-04-29T21:57:47.865Z,12.00
2019-04-29T22:00:23.857Z,11.90
2019-04-29T22:02:49.189Z,12.00
2019-04-29T22:05:18.651Z,12.00
2019-04-29T22:07:47.768Z,12.10
2019-04-29T22:10:19.911Z,12.10
2019-04-29T22:12:51.073Z,12.10
2019-04-29T22:15:29.807Z,12.10
2019-04-29T22:17:56.407Z,12.10
2019-04-29T22:20:19.422Z,12.10
2019-04-29T22:22:48.192Z,12.10
2019-04-29T22:25:17.034Z,12.10
2019-04-29T22:27:45.887Z,12.10
2019-04-29T22:30:18.528Z,12.10
2019-04-29T22:32:47.323Z,12.20
2019-04-29T22:35:17.568Z,12.00
2019-04-29T22:37:46.439Z,11.90
2019-04-29T22:40:17.326Z,12.00
2019-04-29T22:42:48.748Z,12.00
2019-04-29T22:45:17.761Z,12.10
2019-04-29T22:47:46.588Z,12.00
2019-04-29T22:50:15.410Z,12.00
2019-04-29T22:52:45.322Z,12.00
2019-04-29T22:55:15.558Z,12.00
2019-04-29T22:57:44.908Z,11.90
2019-04-29T23:00:17.001Z,11.90
2019-04-29T23:02:45.885Z,11.90
2019-04-29T23:05:14.736Z,11.90
2019-04-29T23:07:45.481Z,11.80
2019-04-29T23:10:18.113Z,11.80
2019-04-29T23:12:45.051Z,11.70
2019-04-29T23:15:15.044Z,11.70
2019-04-29T23:17:47.351Z,11.80
2019-04-29T23:20:20.741Z,11.80
2019-04-29T23:22:48.037Z,11.90
2019-04-29T23:25:26.657Z,11.80
2019-04-29T23:27:54.371Z,11.90
2019-04-29T23:30:24.816Z,11.80
2019-04-29T23:32:53.620Z,11.80
2019-04-29T23:35:22.419Z,11.80
2019-04-29T23:37:51.227Z,11.70
2019-04-29T23:40:20.032Z,11.80
2019-04-29T23:42:49.290Z,11.80
2019-04-29T23:45:21.130Z,11.80
2019-04-29T23:47:50.467Z,11.80
2019-04-29T23:50:20.210Z,11.90
2019-04-29T23:52:51.796Z,11.80
2019-04-29T23:55:20.401Z,11.80
2019-04-29T23:58:08.333Z,11.80
